Time;durP1;ratioP1;P1;durP2;ratioP2;P2;SDS_P1;SDS_P2;PMS_P1;PMS_P2;Temp;Humidity;BMP_temperature;BMP_pressure;BME280_temperature;BME280_humidity;BME280_pressure;Samples;Min_cycle;Max_cycle;Signal;HPM_P1;HPM_P2
2023/10/17 00:01:52;;;;;;;;;;;;;;;20.06;50.47;97529.97;602335;234;67124;-66
2023/10/17 00:06:48;;;;;;;;;;;;;;;20.07;49.25;97536.11;602347;234;62450;-66
2023/10/17 00:09:25;;;;;;;;;;;;;;;20.06;49.43;97529.17;602053;233;64941;-66
2023/10/17 00:11:51;;;;;;;;;;;;;;;20.06;49.33;97529.97;601177;235;64497;-66
2023/10/17 00:14:15;;;;;;;;;;;;;;;20.05;49.98;97523.03;602186;235;65055;-66
2023/10/17 00:16:42;;;;;;;;;;;;;;;20.06;50.17;97523.83;602290;235;67269;-65
2023/10/17 00:19:10;;;;;;;;;;;;;;;20.06;49.31;97527.30;602283;235;67133;-66
2023/10/17 00:21:43;;;;;;;;;;;;;;;20.06;50.22;97519.30;602243;235;64541;-66
2023/10/17 00:24:11;;;;;;;;;;;;;;;20.05;50.33;97517.70;602066;235;64831;-66
2023/10/17 00:26:39;;;;;;;;;;;;;;;20.05;49.43;97523.03;602265;233;64759;-64
2023/10/17 00:29:10;;;;;;;;;;;;;;;20.04;49.97;97510.73;602370;234;62519;-64
2023/10/17 00:31:38;;;;;;;;;;;;;;;20.04;49.64;97505.39;602399;234;64791;-66
2023/10/17 00:34:13;;;;;;;;;;;;;;;20.04;49.50;97505.39;602118;235;68042;-66
2023/10/17 00:36:49;;;;;;;;;;;;;;;20.05;49.97;97500.86;602239;235;62348;-66
2023/10/17 00:39:32;;;;;;;;;;;;;;;20.04;50.09;97501.92;602094;234;67830;-65
2023/10/17 00:44:39;;;;;;;;;;;;;;;20.04;49.20;97505.39;602194;235;63434;-65
2023/10/17 00:47:18;;;;;;;;;;;;;;;20.04;50.87;97505.39;602286;234;64858;-65
2023/10/17 00:49:44;;;;;;;;;;;;;;;20.04;49.24;97505.39;600061;234;65612;-65
2023/10/17 00:52:25;;;;;;;;;;;;;;;20.02;49.80;97499.50;597487;236;64590;-65
2023/10/17 00:54:54;;;;;;;;;;;;;;;20.02;48.72;97496.83;597529;236;68819;-65
2023/10/17 00:57:32;;;;;;;;;;;;;;;20.03;49.45;97503.00;597388;234;64885;-63
2023/10/17 00:59:54;;;;;;;;;;;;;;;20.02;49.79;97491.50;596075;237;62581;-64
2023/10/17 01:02:23;;;;;;;;;;;;;;;20.02;49.36;97486.16;596332;238;64875;-64
2023/10/17 01:04:59;;;;;;;;;;;;;;;20.02;48.91;97488.83;596302;238;66921;-64
2023/10/17 01:07:34;;;;;;;;;;;;;;;20.02;49.91;97480.02;596162;236;63551;-63
2023/10/17 01:10:21;;;;;;;;;;;;;;;20.02;50.42;97482.69;596304;238;67226;-63
2023/10/17 01:12:54;;;;;;;;;;;;;;;20.01;49.30;97473.89;596049;235;67003;-63
2023/10/17 01:15:22;;;;;;;;;;;;;;;20.00;49.94;97474.96;596295;238;62383;-63
2023/10/17 01:17:53;;;;;;;;;;;;;;;20.01;49.71;97473.89;596315;238;65806;-63
2023/10/17 01:20:20;;;;;;;;;;;;;;;20.00;50.08;97477.63;596234;234;64834;-65
2023/10/17 01:22:48;;;;;;;;;;;;;;;20.00;50.00;97479.47;596319;238;62185;-66
2023/10/17 01:25:39;;;;;;;;;;;;;;;20.00;49.77;97468.80;596224;238;67412;-66
2023/10/17 01:27:50;;;;;;;;;;;;;;;20.00;49.87;97477.63;594906;238;67271;-65
2023/10/17 01:30:18;;;;;;;;;;;;;;;20.00;48.65;97472.29;596268;238;64132;-65
2023/10/17 01:32:47;;;;;;;;;;;;;;;20.00;50.77;97471.46;596323;238;67306;-66
2023/10/17 01:35:19;;;;;;;;;;;;;;;20.00;50.76;97474.12;596311;238;66813;-66
2023/10/17 01:37:43;;;;;;;;;;;;;;;20.00;50.28;97474.12;596271;238;64861;-66
2023/10/17 01:40:19;;;;;;;;;;;;;;;19.99;51.05;97470.66;596318;238;66650;-66
2023/10/17 01:42:41;;;;;;;;;;;;;;;19.99;50.77;97470.66;596053;238;66986;-66
2023/10/17 01:45:13;;;;;;;;;;;;;;;19.99;49.73;97467.99;596333;238;62362;-66
2023/10/17 01:47:40;;;;;;;;;;;;;;;19.99;50.45;97476.00;596320;238;67480;-66
2023/10/17 01:50:10;;;;;;;;;;;;;;;19.99;50.33;97461.86;599804;235;66912;-66
2023/10/17 01:52:42;;;;;;;;;;;;;;;19.98;49.39;97461.06;602434;235;64772;-66
2023/10/17 01:55:09;;;;;;;;;;;;;;;19.99;50.55;97469.86;602137;235;67842;-64
2023/10/17 01:57:40;;;;;;;;;;;;;;;19.98;50.54;97469.06;602398;235;67227;-64
2023/10/17 02:00:23;;;;;;;;;;;;;;;19.97;50.11;97472.80;602007;234;65416;-64
2023/10/17 02:02:37;;;;;;;;;;;;;;;19.98;49.70;97473.60;601858;234;45637;-64
2023/10/17 02:05:06;;;;;;;;;;;;;;;19.98;50.29;97474.40;602202;235;64595;-64
2023/10/17 02:07:33;;;;;;;;;;;;;;;19.98;49.50;97474.40;602142;234;64786;-64
2023/10/17 02:10:06;;;;;;;;;;;;;;;19.99;49.24;97469.86;602310;234;64815;-64
2023/10/17 02:12:31;;;;;;;;;;;;;;;19.98;49.76;97471.73;601993;234;65664;-64
2023/10/17 02:14:59;;;;;;;;;;;;;;;19.98;50.12;97473.60;602200;235;64751;-64
2023/10/17 02:17:26;;;;;;;;;;;;;;;19.98;50.06;97473.60;602263;235;67327;-64
2023/10/17 02:19:58;;;;;;;;;;;;;;;19.97;48.56;97480.80;602281;235;67009;-64
2023/10/17 02:22:25;;;;;;;;;;;;;;;19.97;50.50;97480.80;602041;235;66232;-64
2023/10/17 02:24:57;;;;;;;;;;;;;;;19.96;49.84;97474.64;602235;235;64816;-64
2023/10/17 02:27:22;;;;;;;;;;;;;;;19.97;49.84;97475.47;602257;235;66810;-64
2023/10/17 02:29:49;;;;;;;;;;;;;;;19.96;49.63;97471.97;602370;234;64725;-64
2023/10/17 02:32:18;;;;;;;;;;;;;;;19.97;49.55;97467.47;602272;234;67391;-64
2023/10/17 02:34:47;;;;;;;;;;;;;;;19.96;49.39;97463.97;603763;229;64777;-64
2023/10/17 02:37:18;;;;;;;;;;;;;;;19.96;50.46;97460.50;602461;235;62435;-64
2023/10/17 02:39:44;;;;;;;;;;;;;;;19.96;49.89;97460.50;602332;235;64780;-66
2023/10/17 02:42:11;;;;;;;;;;;;;;;19.95;49.38;97458.91;602490;235;67242;-66
2023/10/17 02:44:43;;;;;;;;;;;;;;;19.95;49.88;97461.57;602783;235;65516;-64
2023/10/17 02:47:11;;;;;;;;;;;;;;;19.96;50.20;97460.50;602346;235;67085;-66
2023/10/17 02:49:39;;;;;;;;;;;;;;;19.94;50.43;97452.77;602379;232;67515;-66
2023/10/17 02:52:06;;;;;;;;;;;;;;;19.94;50.42;97452.77;603063;234;65786;-66
2023/10/17 02:54:57;;;;;;;;;;;;;;;19.96;49.41;97460.50;602863;235;67678;-66
2023/10/17 02:57:08;;;;;;;;;;;;;;;19.95;49.74;97461.57;602500;235;67811;-65
2023/10/17 02:59:35;;;;;;;;;;;;;;;19.94;50.39;97457.27;602896;235;64971;-65
2023/10/17 03:02:06;;;;;;;;;;;;;;;19.95;50.12;97458.91;602226;233;64889;-65
2023/10/17 03:04:33;;;;;;;;;;;;;;;19.95;49.21;97453.56;601871;235;64514;-66
2023/10/17 03:07:07;;;;;;;;;;;;;;;19.94;49.79;97443.94;601902;235;62583;-66
2023/10/17 03:17:20;;;;;;;;;;;;;;;19.93;49.26;97427.13;601924;233;67370;-66
2023/10/17 03:19:43;;;;;;;;;;;;;;;19.93;49.87;97423.66;601822;233;67176;-66
2023/10/17 03:22:24;;;;;;;;;;;;;;;19.94;49.64;97438.60;601917;235;64707;-66
2023/10/17 03:24:47;;;;;;;;;;;;;;;19.93;48.59;97434.34;601660;235;64950;-66
2023/10/17 03:27:27;;;;;;;;;;;;;;;19.92;49.26;97432.73;601906;235;66945;-66
2023/10/17 03:29:53;;;;;;;;;;;;;;;19.92;48.89;97438.08;601846;235;65490;-66
2023/10/17 03:32:23;;;;;;;;;;;;;;;19.93;50.27;97439.67;601876;235;64426;-66
2023/10/17 03:34:56;;;;;;;;;;;;;;;19.93;49.59;97439.67;601932;235;67750;-66
2023/10/17 03:37:33;;;;;;;;;;;;;;;19.92;49.58;97438.08;601806;235;62389;-67
2023/10/17 03:39:52;;;;;;;;;;;;;;;19.92;49.73;97446.08;601551;235;67386;-67
2023/10/17 03:45:35;;;;;;;;;;;;;;;19.92;49.57;97435.41;601908;235;64610;-66
2023/10/17 03:47:43;;;;;;;;;;;;;;;19.91;49.08;97442.58;601230;233;64734;-65
2023/10/17 03:50:14;;;;;;;;;;;;;;;19.91;50.33;97433.78;602163;234;67601;-65
2023/10/17 03:52:40;;;;;;;;;;;;;;;19.90;49.99;97430.31;602330;235;62472;-65
2023/10/17 03:55:10;;;;;;;;;;;;;;;19.91;49.66;97423.91;602373;235;64859;-65
2023/10/17 03:57:52;;;;;;;;;;;;;;;19.91;49.73;97425.77;602420;233;67101;-65
2023/10/17 04:00:25;;;;;;;;;;;;;;;19.90;49.84;97424.17;601534;233;62441;-65
2023/10/17 04:02:38;;;;;;;;;;;;;;;19.91;50.26;97425.77;601859;233;48479;-66
2023/10/17 04:05:11;;;;;;;;;;;;;;;19.91;49.47;97425.77;602464;235;64818;-66
2023/10/17 04:07:36;;;;;;;;;;;;;;;19.90;49.73;97432.18;602330;234;64852;-65
2023/10/17 04:12:49;;;;;;;;;;;;;;;19.90;49.44;97429.52;602373;235;66983;-66
2023/10/17 04:15:20;;;;;;;;;;;;;;;19.89;49.07;97423.38;602385;235;64558;-66
2023/10/17 04:17:47;;;;;;;;;;;;;;;19.90;49.69;97440.98;602442;235;65165;-66
2023/10/17 04:20:16;;;;;;;;;;;;;;;19.89;49.50;97439.37;602393;233;64686;-66
2023/10/17 04:22:44;;;;;;;;;;;;;;;19.90;49.40;97437.52;602506;235;64546;-66
2023/10/17 04:25:31;;;;;;;;;;;;;;;19.90;49.71;97429.52;602456;235;65094;-66
2023/10/17 04:27:54;;;;;;;;;;;;;;;19.89;48.85;97427.91;602057;235;66778;-65
2023/10/17 04:30:29;;;;;;;;;;;;;;;19.90;49.68;97429.52;602317;235;65301;-65
2023/10/17 04:32:52;;;;;;;;;;;;;;;19.89;50.07;97423.38;602246;235;67175;-66
2023/10/17 04:35:20;;;;;;;;;;;;;;;19.88;49.57;97421.75;602471;234;64977;-66
2023/10/17 04:38:11;;;;;;;;;;;;;;;19.88;49.71;97424.41;602322;235;63435;-66
2023/10/17 04:41:11;;;;;;;;;;;;;;;19.88;49.89;97429.75;601619;233;64777;-66
2023/10/17 04:45:27;;;;;;;;;;;;;;;19.88;49.39;97411.08;602342;233;64775;-66
2023/10/17 04:48:10;;;;;;;;;;;;;;;19.87;50.71;97398.81;602351;235;67054;-66
2023/10/17 04:50:40;;;;;;;;;;;;;;;19.87;49.08;97403.35;602123;235;69692;-66
2023/10/17 04:53:03;;;;;;;;;;;;;;;19.86;49.18;97410.55;602250;235;64605;-66
2023/10/17 04:55:40;;;;;;;;;;;;;;;19.87;49.90;97411.35;602384;235;67295;-66
2023/10/17 04:58:19;;;;;;;;;;;;;;;19.86;48.99;97412.39;602027;235;64379;-66
2023/10/17 05:03:20;;;;;;;;;;;;;;;19.88;48.19;97418.28;602457;235;67135;-66
2023/10/17 05:08:33;;;;;;;;;;;;;;;19.87;50.04;97420.16;602438;235;62698;-66
2023/10/17 06:17:34;;;;;;;;;;;;;;;19.80;49.26;97454.22;602239;235;66868;-64
2023/10/17 06:19:49;;;;;;;;;;;;;;;19.79;47.15;97444.61;600182;234;66787;-65
2023/10/17 06:35:39;;;;;;;;;;;;;;;19.79;49.94;97443.81;607473;233;66981;-64
2023/10/17 06:38:07;;;;;;;;;;;;;;;19.78;49.74;97448.35;607287;232;64827;-64
2023/10/17 06:40:44;;;;;;;;;;;;;;;19.79;50.63;97449.95;607460;232;65133;-65
2023/10/17 06:43:13;;;;;;;;;;;;;;;19.79;50.31;97449.15;607501;233;64805;-66
2023/10/17 06:45:37;;;;;;;;;;;;;;;19.79;49.15;97441.15;607518;232;64606;-66
2023/10/17 06:48:07;;;;;;;;;;;;;;;19.78;50.22;97445.69;607371;233;66909;-66
2023/10/17 06:53:27;;;;;;;;;;;;;;;19.77;50.22;97441.39;606409;232;62454;-65
2023/10/17 06:55:52;;;;;;;;;;;;;;;19.77;49.51;97445.92;606354;233;65039;-66
2023/10/17 06:58:16;;;;;;;;;;;;;;;19.78;49.57;97439.52;606330;233;64912;-64
2023/10/17 07:00:49;;;;;;;;;;;;;;;19.78;49.91;97448.35;606318;234;62681;-65
2023/10/17 07:03:13;;;;;;;;;;;;;;;19.78;49.51;97453.69;606388;233;64986;-64
2023/10/17 07:05:46;;;;;;;;;;;;;;;19.79;49.78;97449.15;606371;234;66784;-64
2023/10/17 07:08:14;;;;;;;;;;;;;;;19.80;50.11;97446.22;606393;233;64847;-64
2023/10/17 07:10:39;;;;;;;;;;;;;;;19.80;50.36;97450.75;606357;232;64733;-65
2023/10/17 07:13:25;;;;;;;;;;;;;;;19.80;49.22;97448.88;606414;233;67164;-65
2023/10/17 07:15:53;;;;;;;;;;;;;;;19.81;49.21;97439.05;608321;233;64575;-65
2023/10/17 07:21:15;;;;;;;;;;;;;;;19.82;50.93;97440.64;608425;233;64909;-65
2023/10/17 07:23:41;;;;;;;;;;;;;;;19.81;50.61;97434.51;608416;232;64980;-65
2023/10/17 07:26:17;;;;;;;;;;;;;;;19.81;52.13;97431.84;608304;233;67062;-65
2023/10/17 07:28:45;;;;;;;;;;;;;;;19.82;51.73;97429.97;607852;233;64834;-68
2023/10/17 07:31:13;;;;;;;;;;;;;;;19.81;51.70;97429.17;608445;232;62287;-66
2023/10/17 07:33:44;;;;;;;;;;;;;;;19.81;50.62;97426.51;608210;233;67104;-66
2023/10/17 07:36:15;;;;;;;;;;;;;;;19.81;51.27;97423.04;608314;233;66662;-65
2023/10/17 07:38:43;;;;;;;;;;;;;;;19.81;51.45;97415.84;608591;232;62506;-66
2023/10/17 07:41:15;;;;;;;;;;;;;;;19.81;50.74;97415.84;608168;233;64528;-66
2023/10/17 07:43:46;;;;;;;;;;;;;;;19.81;51.27;97402.50;608241;233;67629;-67
2023/10/17 07:46:19;;;;;;;;;;;;;;;19.83;50.32;97402.23;608344;233;62452;-67
2023/10/17 07:48:49;;;;;;;;;;;;;;;19.82;49.58;97405.97;607580;232;67100;-68
2023/10/17 07:51:17;;;;;;;;;;;;;;;19.83;51.74;97399.56;609046;231;66726;-68
2023/10/17 07:53:48;;;;;;;;;;;;;;;19.82;50.49;97396.10;608557;233;64937;-66
2023/10/17 07:56:26;;;;;;;;;;;;;;;19.82;51.14;97395.30;609177;230;65092;-67
2023/10/17 07:58:45;;;;;;;;;;;;;;;19.83;50.93;97394.23;608557;232;64875;-68
2023/10/17 08:01:16;;;;;;;;;;;;;;;19.84;51.93;97387.86;608586;232;64728;-68
2023/10/17 08:04:18;;;;;;;;;;;;;;;19.83;50.99;97380.90;608979;231;64633;-68
2023/10/17 08:06:23;;;;;;;;;;;;;;;19.84;50.79;97377.98;607261;233;65640;-66
2023/10/17 08:08:50;;;;;;;;;;;;;;;19.83;50.08;97373.69;608980;233;62357;-66
2023/10/17 08:11:37;;;;;;;;;;;;;;;19.84;50.40;97379.86;609050;231;65229;-67
2023/10/17 08:13:50;;;;;;;;;;;;;;;19.83;51.66;97371.03;607433;233;64959;-66
2023/10/17 08:16:24;;;;;;;;;;;;;;;19.84;49.06;97371.86;608598;230;65082;-66
2023/10/17 08:19:12;;;;;;;;;;;;;;;19.84;49.67;97359.32;609012;233;64917;-66
2023/10/17 08:24:02;;;;;;;;;;;;;;;19.86;51.63;97364.37;608663;233;65430;-64
2023/10/17 08:26:32;;;;;;;;;;;;;;;19.86;50.76;97356.38;609061;233;67332;-64
2023/10/17 08:29:00;;;;;;;;;;;;;;;19.85;49.34;97358.25;608989;233;64883;-64
2023/10/17 08:31:35;;;;;;;;;;;;;;;19.85;47.20;97354.78;609033;231;64745;-63
2023/10/17 08:34:04;;;;;;;;;;;;;;;19.87;46.19;97355.34;608924;232;67033;-64
2023/10/17 08:42:49;;;;;;;;;;;;;;;19.87;49.50;97350.80;608755;231;65004;-64
2023/10/17 08:44:31;;;;;;;;;;;;;;;19.86;50.27;97349.21;607954;233;64820;-64
2023/10/17 08:47:00;;;;;;;;;;;;;;;19.87;50.02;97350.01;608590;233;64689;-65
2023/10/17 08:49:28;;;;;;;;;;;;;;;19.86;48.83;97346.54;609288;232;67359;-64
2023/10/17 08:51:56;;;;;;;;;;;;;;;19.88;51.40;97346.27;609354;231;64816;-64
2023/10/17 08:54:29;;;;;;;;;;;;;;;19.87;50.00;97342.80;609147;233;62620;-64
2023/10/17 08:57:01;;;;;;;;;;;;;;;19.88;50.28;97336.40;609191;233;67290;-66
2023/10/17 09:02:29;;;;;;;;;;;;;;;19.89;48.31;97329.22;609075;233;63417;-64
2023/10/17 09:05:06;;;;;;;;;;;;;;;19.89;45.48;97335.36;609202;233;67198;-64
2023/10/17 09:07:43;;;;;;;;;;;;;;;19.89;50.63;97327.36;609052;232;66989;-64
2023/10/17 09:10:04;;;;;;;;;;;;;;;19.88;49.32;97328.39;608961;233;64595;-63
2023/10/17 09:15:48;;;;;;;;;;;;;;;19.88;49.91;97328.39;605628;234;67053;-63
2023/10/17 09:18:08;;;;;;;;;;;;;;;19.90;50.51;97328.16;608482;233;62516;-65
2023/10/17 09:20:37;;;;;;;;;;;;;;;19.89;50.38;97330.02;609154;233;64845;-65
2023/10/17 09:23:05;;;;;;;;;;;;;;;19.90;49.61;97333.48;609077;233;67085;-62
2023/10/17 09:25:32;;;;;;;;;;;;;;;19.90;50.08;97322.81;609138;233;64734;-64
2023/10/17 09:28:00;;;;;;;;;;;;;;;19.90;50.08;97320.16;609171;233;64933;-63
2023/10/17 09:30:28;;;;;;;;;;;;;;;19.89;50.13;97316.69;609107;233;64920;-65
2023/10/17 09:32:55;;;;;;;;;;;;;;;19.91;49.37;97322.55;608953;233;62566;-63
2023/10/17 09:35:23;;;;;;;;;;;;;;;19.93;51.67;97319.64;609158;233;64644;-65
2023/10/17 09:37:51;;;;;;;;;;;;;;;19.92;48.53;97326.05;609156;233;64797;-64
2023/10/17 09:40:33;;;;;;;;;;;;;;;19.94;48.54;97322.06;609146;233;64585;-64
2023/10/17 09:43:00;;;;;;;;;;;;;;;19.94;48.51;97323.90;609101;233;67346;-64
2023/10/17 09:45:34;;;;;;;;;;;;;;;19.94;49.28;97314.06;609127;233;64705;-65
2023/10/17 09:48:08;;;;;;;;;;;;;;;19.94;49.00;97318.56;609131;233;64775;-64
2023/10/17 09:50:34;;;;;;;;;;;;;;;19.94;47.82;97314.06;608848;232;64631;-63
2023/10/17 09:53:03;;;;;;;;;;;;;;;19.93;48.87;97312.44;609187;233;67020;-64
2023/10/17 09:55:32;;;;;;;;;;;;;;;19.93;49.57;97301.77;608838;233;62433;-64
2023/10/17 09:58:08;;;;;;;;;;;;;;;19.95;49.85;97309.52;609117;233;67056;-63
2023/10/17 10:00:52;;;;;;;;;;;;;;;19.92;49.06;97300.17;609033;233;64813;-64
2023/10/17 10:03:21;;;;;;;;;;;;;;;19.93;48.52;97288.42;609164;233;64557;-65
2023/10/17 10:05:50;;;;;;;;;;;;;;;19.94;50.24;97286.55;609124;233;67316;-64
2023/10/17 10:08:28;;;;;;;;;;;;;;;19.93;48.58;97287.63;609188;233;63506;-65
2023/10/17 10:10:56;;;;;;;;;;;;;;;19.93;50.36;97282.30;609133;233;62632;-65
2023/10/17 10:13:24;;;;;;;;;;;;;;;19.92;50.75;97270.03;609106;233;64248;-65
2023/10/17 10:16:01;;;;;;;;;;;;;;;19.92;50.63;97270.03;609126;233;66997;-66
2023/10/17 10:18:45;;;;;;;;;;;;;;;19.91;50.86;97269.20;609031;233;65015;-66
2023/10/17 10:21:13;;;;;;;;;;;;;;;19.90;51.71;97267.61;609161;233;64575;-66
2023/10/17 10:23:41;;;;;;;;;;;;;;;19.90;51.14;97259.60;609121;233;66603;-65
2023/10/17 10:26:19;;;;;;;;;;;;;;;19.90;52.19;97254.27;609181;233;62710;-66
2023/10/17 10:28:42;;;;;;;;;;;;;;;19.89;51.66;97250.01;608914;233;64478;-66
2023/10/17 10:31:29;;;;;;;;;;;;;;;19.87;51.10;97254.79;609163;233;67329;-65
2023/10/17 10:33:55;;;;;;;;;;;;;;;19.87;50.95;97254.79;608883;233;64757;-65
2023/10/17 10:36:23;;;;;;;;;;;;;;;19.89;50.54;97249.20;609160;233;66859;-65
2023/10/17 10:38:57;;;;;;;;;;;;;;;19.88;49.51;97244.91;609205;233;66887;-66
2023/10/17 10:41:22;;;;;;;;;;;;;;;19.88;51.06;97239.58;609046;233;64840;-65
2023/10/17 10:43:51;;;;;;;;;;;;;;;19.88;51.49;97239.58;609154;233;67604;-65
2023/10/17 10:46:19;;;;;;;;;;;;;;;19.87;51.32;97235.32;608904;233;67068;-66
2023/10/17 10:48:51;;;;;;;;;;;;;;;19.87;51.24;97232.66;609096;232;64585;-66
2023/10/17 10:51:19;;;;;;;;;;;;;;;19.87;52.14;97233.45;609227;232;67363;-66
2023/10/17 10:53:54;;;;;;;;;;;;;;;19.87;50.24;97232.66;609144;233;67056;-66
2023/10/17 10:56:20;;;;;;;;;;;;;;;19.87;50.67;97237.98;609073;233;64812;-63
2023/10/17 10:58:56;;;;;;;;;;;;;;;19.86;50.70;97247.86;609149;232;64909;-65
2023/10/17 11:01:18;;;;;;;;;;;;;;;19.87;51.99;97240.66;608906;233;67248;-65
2023/10/17 11:03:49;;;;;;;;;;;;;;;19.86;49.60;97242.52;609133;233;62427;-64
2023/10/17 11:06:18;;;;;;;;;;;;;;;19.86;51.54;97231.86;609174;233;67273;-67
2023/10/17 11:08:46;;;;;;;;;;;;;;;19.87;51.50;97237.98;609013;233;64653;-66
2023/10/17 11:11:14;;;;;;;;;;;;;;;19.88;52.35;97237.71;609119;233;62489;-66
2023/10/17 11:13:44;;;;;;;;;;;;;;;19.87;52.11;97236.12;609108;233;67305;-66
2023/10/17 11:16:21;;;;;;;;;;;;;;;19.88;51.77;97228.91;609125;233;65641;-67
2023/10/17 11:18:45;;;;;;;;;;;;;;;19.88;51.47;97220.91;609058;233;64646;-65
2023/10/17 11:21:13;;;;;;;;;;;;;;;19.89;52.09;97219.87;609208;233;64933;-65
2023/10/17 11:23:46;;;;;;;;;;;;;;;19.88;51.76;97235.05;609109;233;66704;-66
2023/10/17 11:26:12;;;;;;;;;;;;;;;19.89;52.21;97236.67;609118;233;64846;-64
2023/10/17 11:28:42;;;;;;;;;;;;;;;19.89;51.79;97230.54;609149;233;67049;-64
2023/10/17 11:31:21;;;;;;;;;;;;;;;19.89;51.71;97235.88;609116;233;67448;-64
2023/10/17 11:33:49;;;;;;;;;;;;;;;19.89;52.12;97225.20;609057;232;62757;-65
2023/10/17 11:36:13;;;;;;;;;;;;;;;19.88;51.78;97224.38;609068;233;64839;-64
2023/10/17 11:38:40;;;;;;;;;;;;;;;19.88;51.48;97218.25;609098;232;65074;-65
2023/10/17 11:41:08;;;;;;;;;;;;;;;19.89;51.57;97223.33;609176;233;64774;-65
2023/10/17 11:43:42;;;;;;;;;;;;;;;19.89;51.22;97217.20;609117;233;67342;-65
2023/10/17 11:46:12;;;;;;;;;;;;;;;19.89;51.84;97219.87;609043;233;67039;-64
2023/10/17 11:48:40;;;;;;;;;;;;;;;19.88;51.39;97213.70;609187;232;62398;-65
2023/10/17 11:51:18;;;;;;;;;;;;;;;19.91;51.40;97215.05;607913;229;64542;-66
2023/10/17 11:54:05;;;;;;;;;;;;;;;19.90;51.88;97208.92;604609;229;64745;-66
2023/10/17 11:56:33;;;;;;;;;;;;;;;19.89;51.00;97214.53;605198;232;64639;-65
2023/10/17 11:59:04;;;;;;;;;;;;;;;19.89;51.20;97214.53;602238;235;67443;-65
2023/10/17 12:01:36;;;;;;;;;;;;;;;19.88;51.41;97208.38;602236;235;66863;-67
2023/10/17 12:04:08;;;;;;;;;;;;;;;19.89;50.93;97210.00;603201;229;64445;-69
2023/10/17 12:06:36;;;;;;;;;;;;;;;19.88;51.05;97205.70;606281;232;65124;-67
2023/10/17 12:11:49;;;;;;;;;;;;;;;19.89;50.72;97202.00;600197;236;64637;-66
2023/10/17 12:14:23;;;;;;;;;;;;;;;19.90;50.72;97194.80;606075;232;65694;-66
2023/10/17 12:16:54;;;;;;;;;;;;;;;19.89;52.73;97188.66;608836;232;68025;-66
2023/10/17 12:19:28;;;;;;;;;;;;;;;19.88;49.25;97187.03;608972;232;64853;-66
2023/10/17 12:22:00;;;;;;;;;;;;;;;19.89;48.28;97187.86;609037;232;67386;-65
2023/10/17 12:24:38;;;;;;;;;;;;;;;19.89;51.26;97179.86;608880;233;67203;-65
2023/10/17 12:27:06;;;;;;;;;;;;;;;19.81;50.86;97164.36;608975;232;64679;-64
2023/10/17 12:29:34;;;;;;;;;;;;;;;19.89;50.74;97177.20;608947;232;64884;-65
2023/10/17 12:32:02;;;;;;;;;;;;;;;19.89;51.12;97171.86;609213;232;67009;-65
2023/10/17 12:34:29;;;;;;;;;;;;;;;19.89;50.48;97169.99;608997;232;62440;-65
2023/10/17 12:36:57;;;;;;;;;;;;;;;19.90;50.12;97170.79;608936;232;64802;-64
2023/10/17 12:39:27;;;;;;;;;;;;;;;19.91;50.95;97169.71;609054;232;64770;-67
2023/10/17 12:41:54;;;;;;;;;;;;;;;19.90;50.89;97174.25;608965;232;64556;-66
2023/10/17 12:44:21;;;;;;;;;;;;;;;19.90;51.36;97168.92;608948;232;67153;-64
2023/10/17 12:46:49;;;;;;;;;;;;;;;19.91;48.48;97172.38;608965;232;65953;-67
2023/10/17 12:49:16;;;;;;;;;;;;;;;19.94;43.66;97171.86;608517;232;62611;-66
2023/10/17 12:51:47;;;;;;;;;;;;;;;19.97;45.24;97174.03;608892;232;67022;-67
2023/10/17 12:54:13;;;;;;;;;;;;;;;19.98;49.09;97175.63;609102;232;71388;-66
2023/10/17 12:56:41;;;;;;;;;;;;;;;19.97;47.18;97174.03;608970;232;62818;-64
2023/10/17 12:59:12;;;;;;;;;;;;;;;20.00;43.07;97168.17;608875;232;65806;-65
2023/10/17 13:01:37;;;;;;;;;;;;;;;20.03;44.75;97161.52;608866;232;64818;-64
2023/10/17 13:04:07;;;;;;;;;;;;;;;20.04;49.93;97163.91;609006;232;64594;-64
2023/10/17 13:06:42;;;;;;;;;;;;;;;20.03;47.18;97167.65;608918;232;67764;-63
2023/10/17 13:09:07;;;;;;;;;;;;;;;20.04;45.88;97168.45;608882;232;64847;-66
2023/10/17 13:11:34;;;;;;;;;;;;;;;20.03;48.22;97172.98;608996;232;62312;-66
2023/10/17 13:14:02;;;;;;;;;;;;;;;20.03;49.19;97164.98;608948;232;67301;-67
2023/10/17 13:16:30;;;;;;;;;;;;;;;20.01;49.52;97169.77;608884;232;67207;-66
2023/10/17 13:19:00;;;;;;;;;;;;;;;20.01;49.62;97175.10;608916;232;64635;-66
2023/10/17 13:21:26;;;;;;;;;;;;;;;20.02;50.18;97166.02;604821;230;71659;-66
2023/10/17 13:23:56;;;;;;;;;;;;;;;20.02;49.23;97175.90;601638;232;67985;-66
2023/10/17 13:26:23;;;;;;;;;;;;;;;20.01;48.51;97169.77;602158;233;62433;-66
2023/10/17 13:28:50;;;;;;;;;;;;;;;20.02;46.00;97155.36;592890;235;66115;-68
2023/10/17 13:31:18;;;;;;;;;;;;;;;20.04;47.89;97163.11;599071;235;67029;-65
2023/10/17 13:33:46;;;;;;;;;;;;;;;20.04;46.83;97155.11;598317;235;64895;-66
2023/10/17 13:36:17;;;;;;;;;;;;;;;20.05;46.70;97164.70;599142;235;67168;-65
2023/10/17 13:38:44;;;;;;;;;;;;;;;20.05;47.34;97164.70;598921;235;67137;-65
2023/10/17 13:41:15;;;;;;;;;;;;;;;20.04;47.05;97169.24;599551;235;64468;-65
2023/10/17 13:43:42;;;;;;;;;;;;;;;20.06;47.59;97169.00;599507;235;67048;-65
2023/10/17 13:46:12;;;;;;;;;;;;;;;20.06;46.70;97166.33;599620;230;66927;-65
2023/10/17 13:48:40;;;;;;;;;;;;;;;20.06;46.09;97172.45;615178;230;64786;-65
2023/10/17 13:51:08;;;;;;;;;;;;;;;20.07;46.81;97171.39;615327;230;67138;-65
2023/10/17 13:53:36;;;;;;;;;;;;;;;20.07;46.17;97168.72;615014;230;66654;-65
2023/10/17 13:56:07;;;;;;;;;;;;;;;20.06;44.81;97169.80;615117;230;64584;-66
2023/10/17 13:58:38;;;;;;;;;;;;;;;20.07;44.76;97166.05;615273;230;67232;-65
2023/10/17 14:03:51;;;;;;;;;;;;;;;20.09;44.31;97166.59;605814;229;64638;-67
2023/10/17 14:06:20;;;;;;;;;;;;;;;20.09;44.25;97174.60;605136;232;67061;-67
2023/10/17 14:08:48;;;;;;;;;;;;;;;20.10;44.11;97170.06;602229;235;67233;-66
2023/10/17 14:11:18;;;;;;;;;;;;;;;20.10;43.60;97162.06;603746;229;64770;-66
2023/10/17 14:13:49;;;;;;;;;;;;;;;20.11;43.34;97174.36;605669;232;65840;-69
2023/10/17 14:16:15;;;;;;;;;;;;;;;20.10;43.42;97178.86;602607;232;68190;-66
2023/10/17 14:19:18;;;;;;;;;;;;;;;20.10;43.71;97170.86;609028;232;62502;-68
2023/10/17 14:21:34;;;;;;;;;;;;;;;20.10;43.59;97168.19;606404;232;64161;-67
2023/10/17 14:24:04;;;;;;;;;;;;;;;20.11;43.87;97172.48;608806;232;64615;-65
2023/10/17 14:26:28;;;;;;;;;;;;;;;20.11;43.19;97169.81;606315;232;62489;-65
2023/10/17 14:28:57;;;;;;;;;;;;;;;20.12;43.09;97173.28;602040;235;67253;-67
2023/10/17 14:31:24;;;;;;;;;;;;;;;20.12;43.21;97171.41;602220;235;64776;-69
2023/10/17 14:33:55;;;;;;;;;;;;;;;20.12;43.14;97167.94;602375;235;64781;-67
2023/10/17 14:36:22;;;;;;;;;;;;;;;20.13;43.10;97169.53;602915;229;64588;-66
2023/10/17 14:38:50;;;;;;;;;;;;;;;20.13;43.11;97167.70;606609;232;64687;-65
2023/10/17 14:41:18;;;;;;;;;;;;;;;20.15;43.14;97170.09;608948;232;64577;-65
2023/10/17 14:43:52;;;;;;;;;;;;;;;20.14;43.18;97163.95;608692;232;67055;-66
2023/10/17 14:46:22;;;;;;;;;;;;;;;20.14;43.23;97155.95;607999;229;64915;-67
2023/10/17 14:48:50;;;;;;;;;;;;;;;20.14;43.20;97153.28;605634;229;62347;-66
2023/10/17 14:51:19;;;;;;;;;;;;;;;20.15;43.15;97154.08;599702;231;64969;-68
2023/10/17 14:53:46;;;;;;;;;;;;;;;20.15;43.19;97148.73;599730;230;67073;-66
2023/10/17 14:56:14;;;;;;;;;;;;;;;20.15;43.27;97148.73;597993;232;64715;-65
2023/10/17 14:58:46;;;;;;;;;;;;;;;20.15;43.22;97148.73;598866;232;67220;-68
2023/10/17 15:01:11;;;;;;;;;;;;;;;20.16;44.69;97147.66;598575;232;67009;-65
2023/10/17 15:03:41;;;;;;;;;;;;;;;20.16;43.46;97151.16;597039;232;62375;-66
2023/10/17 15:06:09;;;;;;;;;;;;;;;20.15;43.35;97146.87;601282;232;67109;-67
2023/10/17 15:08:37;;;;;;;;;;;;;;;20.17;43.28;97147.42;602142;235;66744;-66
2023/10/17 15:11:05;;;;;;;;;;;;;;;20.18;43.48;97133.00;602546;235;64657;-67
2023/10/17 15:13:35;;;;;;;;;;;;;;;20.19;43.45;97144.50;602199;235;67221;-67